28. Mai 2022

Uhrzeit Code Wetter Temp. Sichtweite Wolkendecke Wind METAR/SPECI
5:20 pm
L
57 °F 0 mi - 310° 310° 8 - 18 kt METAR ETWM 281520Z AUTO 31008G18KT //// // ////// 14/03 Q1018 ///
4:20 pm
L
55 °F 0 mi - 290° 290° 7 kt METAR ETWM 281420Z AUTO 29007KT //// // ////// 13/06 Q1019 ///
3:20 pm
L
55 °F 0 mi - 320° 320° 13 - 26 kt METAR ETWM 281320Z AUTO 32013G26KT //// // ////// 13/04 Q1019 ///
2:20 pm
L
59 °F 0 mi - 330° 330° 10 kt METAR ETWM 281220Z AUTO 33010KT //// // ////// 15/04 Q1019 ///
1:20 pm
L
57 °F 0 mi - 320° 320° 10 - 24 kt METAR ETWM 281120Z AUTO 32010G24KT //// // ////// 14/05 Q1019 ///
12:20 pm
L
57 °F 0 mi - 320° 320° 8 kt METAR ETWM 281020Z AUTO 32008KT //// // ////// 14/06 Q1019 ///
11:20 am
L
55 °F 0 mi - 310° 310° 6 kt METAR ETWM 280920Z AUTO 31006KT //// // ////// 13/07 Q1019 ///
10:20 am
L
54 °F 0 mi - 280° 280° 10 - 20 kt METAR ETWM 280820Z AUTO 28010G20KT //// // ////// 12/07 Q1019 ///
9:20 am
L
55 °F 0 mi - 310° 310° 8 kt METAR ETWM 280720Z AUTO 31008KT //// // ////// 13/06 Q1019 ///
8:20 am
L
54 °F 0 mi - 300° 300° 8 kt METAR ETWM 280620Z AUTO 30008KT //// // ////// 12/06 Q1019 ///
7:20 am
L
50 °F 0 mi - 280° 280° 7 kt METAR ETWM 280520Z AUTO 28007KT //// // ////// 10/06 Q1018 ///
6:20 am
L
50 °F 0 mi - 280° 280° 7 - 17 kt METAR ETWM 280420Z AUTO 28007G17KT //// // ////// 10/06 Q1018 ///
5:20 am
L
48 °F 0 mi - 280° 280° 5 kt METAR ETWM 280320Z AUTO 28005KT //// // ////// 09/06 Q1018 ///
4:20 am
L
48 °F 0 mi - 290° 290° 5 kt METAR ETWM 280220Z AUTO 29005KT //// // ////// 09/07 Q1018 ///
3:20 am
L
50 °F 0 mi - 280° 280° 7 kt METAR ETWM 280120Z AUTO 28007KT //// // ////// 10/07 Q1018 ///
2:20 am
L
50 °F 0 mi - 270° 270° 4 kt METAR ETWM 280020Z AUTO 27004KT //// // ////// 10/08 Q1018 ///
1:20 am
L
52 °F 0 mi - 260° 260° 7 kt METAR ETWM 272320Z AUTO 26007KT //// // ////// 11/07 Q1018 ///
12:20 am
L
52 °F 0 mi - 260° 260° 4 - 14 kt METAR ETWM 272220Z AUTO 26004G14KT //// // ////// 11/06 Q1019 ///

27. Mai 2022

Uhrzeit Code Wetter Temp. Sichtweite Wolkendecke Wind METAR/SPECI
11:20 pm
L
52 °F 0 mi - 260° 260° 6 kt METAR ETWM 272120Z AUTO 26006KT //// // ////// 11/06 Q1019 ///
10:20 pm
L
54 °F 0 mi - 260° 260° 6 kt METAR ETWM 272020Z AUTO 26006KT //// // ////// 12/06 Q1019 ///
9:20 pm
L
54 °F 0 mi - 280° 280° 8 kt METAR ETWM 271920Z AUTO 28008KT //// // ////// 12/05 Q1019 ///
8:20 pm
L
55 °F 0 mi - 280° 280° 8 kt METAR ETWM 271820Z AUTO 28008KT //// // ////// 13/04 Q1019 ///
7:20 pm
L
57 °F 0 mi - 290° 290° 10 - 20 kt METAR ETWM 271720Z AUTO 29010G20KT //// // ////// 14/05 Q1019 ///
6:20 pm
L
57 °F 0 mi - 280° 280° 12 - 24 kt METAR ETWM 271620Z AUTO 28012G24KT //// // ////// 14/05 Q1019 ///
5:20 pm
L
59 °F 0 mi - 290° 290° 10 - 23 kt METAR ETWM 271520Z AUTO 29010G23KT //// // ////// 15/05 Q1019 ///
4:20 pm
L
59 °F 0 mi - 290° 290° 8 - 22 kt METAR ETWM 271420Z AUTO 29008G22KT //// // ////// 15/05 Q1019 ///
3:20 pm
L
61 °F 0 mi - 300° 300° 11 - 24 kt METAR ETWM 271320Z AUTO 30011G24KT //// // ////// 16/04 Q1019 ///
2:20 pm
L
59 °F 0 mi - 280° 280° 10 - 22 kt METAR ETWM 271220Z AUTO 28010G22KT //// // ////// 15/05 Q1018 ///
1:20 pm
L
59 °F 0 mi - 270° 270° 12 - 22 kt METAR ETWM 271120Z AUTO 27012G22KT //// // ////// 15/05 Q1018 ///
12:20 pm
L
59 °F 0 mi - 270° 270° 10 - 26 kt METAR ETWM 271020Z AUTO 27010G26KT //// // ////// 15/04 Q1018 ///
11:20 am
L
59 °F 0 mi - 280° 280° 12 - 23 kt METAR ETWM 270920Z AUTO 28012G23KT //// // ////// 15/05 Q1018 ///
10:20 am
L
59 °F 0 mi - 290° 290° 8 - 18 kt METAR ETWM 270820Z AUTO 29008G18KT //// // ////// 15/06 Q1018 ///
9:20 am
L
57 °F 0 mi - 290° 290° 7 - 17 kt METAR ETWM 270720Z AUTO 29007G17KT //// // ////// 14/08 Q1017 ///
8:20 am
L
55 °F 0 mi - 280° 280° 5 kt METAR ETWM 270620Z AUTO 28005KT //// // ////// 13/11 Q1017 ///
7:20 am
L
54 °F 0 mi - 250° 250° 4 kt METAR ETWM 270520Z AUTO 25004KT //// // ////// 12/11 Q1017 ///
6:20 am
L
54 °F 0 mi - Var Var 3 kt METAR ETWM 270420Z AUTO VRB03KT //// // ////// 12/11 Q1017 ///
5:20 am
L
54 °F 0 mi - 260° 260° 3 kt METAR ETWM 270320Z AUTO 26003KT //// // ////// 12/11 Q1017 ///
4:20 am
L
55 °F 0 mi - 270° 270° 5 kt METAR ETWM 270220Z AUTO 27005KT //// // ////// 13/12 Q1016 ///
3:20 am
L
55 °F 0 mi - 250° 250° 5 kt METAR ETWM 270120Z AUTO 25005KT //// // ////// 13/12 Q1016 ///
2:20 am
L
55 °F 0 mi - 250° 250° 9 kt METAR ETWM 270020Z AUTO 25009KT //// // ////// 13/12 Q1016 ///
1:20 am
L
57 °F 0 mi - 240° 240° 8 - 18 kt METAR ETWM 262320Z AUTO 24008G18KT //// // ////// 14/13 Q1016 ///
12:20 am
L
57 °F 0 mi - 240° 240° 6 kt METAR ETWM 262220Z AUTO 24006KT //// // ////// 14/13 Q1017 ///

26. Mai 2022

Uhrzeit Code Wetter Temp. Sichtweite Wolkendecke Wind METAR/SPECI
11:20 pm
L
57 °F 0 mi - 230° 230° 7 kt METAR ETWM 262120Z AUTO 23007KT //// // ////// 14/13 Q1017 ///
10:20 pm
L
57 °F 0 mi - 240° 240° 8 - 18 kt METAR ETWM 262020Z AUTO 24008G18KT //// // ////// 14/13 Q1017 ///
9:20 pm
L
61 °F 0 mi - 260° 260° 9 kt METAR ETWM 261920Z AUTO 26009KT //// // ////// 16/10 Q1017 ///
8:20 pm
L
61 °F 0 mi - 260° 260° 9 - 21 kt METAR ETWM 261820Z AUTO 26009G21KT //// // ////// 16/10 Q1017 ///
7:20 pm
L
63 °F 0 mi - 280° 280° 6 kt METAR ETWM 261720Z AUTO 28006KT //// // ////// 17/10 Q1018 ///
6:20 pm
L
64 °F 0 mi - 250° 250° 8 kt METAR ETWM 261620Z AUTO 25008KT //// // ////// 18/09 Q1017 ///
5:20 pm
L
66 °F 0 mi - 260° 260° 7 kt METAR ETWM 261520Z AUTO 26007KT //// // ////// 19/09 Q1018 ///
Ältere Daten

Laden Sie unsere App herunter

Einfacher Zugriff auf das gesamte Flugwetter auf Ihrem Mobiltelefon und Tablet.
Mit vielen Funktionen, die auf der Website nicht verfügbar sind, wie Offline-Unterstützung und eine persönliche Flughafenliste.

Wir und Dritte verfolgen dein Internetverhalten auf unserer Website mit Cookies. Wenn du fortfährst, gehen wir davon aus, dass du mit unserer Cookie-Richtlinie einverstanden bist. Mehr erfahren